Hovedside
METAR-TAF:

METAR-TAF

Lufthavner :

Florø lufthavn

Florø, Norge

breddegrad: 61-35N, lengdegrad: 005-02E, høyde over havet: 0 m

Gjeldene værobservasjon

Denne rapporten ble laget for 28 minutter siden, klokken 17:50 UTC
Vind 9 kt fra Vest-nordvest
Temperatur 4°C
Luftfuktighet 56%
Trykk 1028 hPa
Sikt 10 km eller mer

METAR: ENFL 091750Z AUTO 29009KT 9999NDV BKN054/// 04/M04 Q1028

Tid: 20:18 (18:18 UTC)

Varsel

Denne rapporten ble laget for 1 time og 18 minutter siden, klokken 17:00 UTC
Varsel gyldig fra 09. klokken 18 UTC til 10. klokken 03 UTC
Vind 8 kt fra Nordvest
Sikt 10 km eller mer
Få skyer i en høyde av 2000 ft
Brutte skyer i en høyde av 4000 ft

TAF: ENFL 091700Z 0918/1003 31008KT 9999 FEW020 BKN040

Værobservasjoner og værvarsel for over 4000 flyplasser (METAR- og TAF-rapporter).

Tilgjengelige stasjoner er representert av de røde og gule prikkene på kartet.

Hold musepekeren over prikken for å se navnet på stasjonen.

Klikk så for å se værobservasjoner og -varsler.

For å forandre kartet kan du klikke på den grønne knappen med svart kryss for å zoome inn, på den grønne knappen med strek for å zoome ut, eller på de grønne pilene for å se tilstøtende kart.


METAR-TAF: